createdAt,value
2017-02-19T00:00:09.345Z,931.65
2017-02-19T00:00:37.583Z,931.67
2017-02-19T00:01:05.867Z,931.66
2017-02-19T00:01:34.065Z,931.69
2017-02-19T00:02:02.260Z,931.74
2017-02-19T00:02:30.321Z,931.75
2017-02-19T00:02:58.562Z,931.77
2017-02-19T00:03:26.625Z,931.78
2017-02-19T00:03:54.682Z,931.82
2017-02-19T00:04:22.787Z,931.83
2017-02-19T00:04:50.720Z,931.9
2017-02-19T00:05:18.851Z,931.91
2017-02-19T00:05:47.017Z,931.91
2017-02-19T00:06:15.132Z,931.93
2017-02-19T00:06:43.210Z,931.94
2017-02-19T00:07:11.384Z,931.95
2017-02-19T00:07:39.731Z,931.98
2017-02-19T00:08:07.693Z,931.98
2017-02-19T00:08:35.875Z,931.99
2017-02-19T00:09:04.137Z,931.99
2017-02-19T00:09:32.401Z,932.02
2017-02-19T00:10:00.484Z,931.99
2017-02-19T00:10:28.707Z,931.96
2017-02-19T00:10:56.850Z,931.99
2017-02-19T00:11:24.800Z,931.98
2017-02-19T00:11:53.019Z,931.99
2017-02-19T00:12:21.364Z,932.01
2017-02-19T00:12:49.449Z,931.99
2017-02-19T00:13:17.555Z,931.99
2017-02-19T00:13:45.668Z,931.96
2017-02-19T00:14:13.890Z,932
2017-02-19T00:14:42.013Z,931.97
2017-02-19T00:15:10.110Z,932
2017-02-19T00:15:38.260Z,931.99
2017-02-19T00:16:06.532Z,932.01
2017-02-19T00:16:34.663Z,932.01
2017-02-19T00:17:02.888Z,932.03
2017-02-19T00:17:31.234Z,932.05
2017-02-19T00:17:59.394Z,932.07
2017-02-19T00:18:27.608Z,932.06
2017-02-19T00:18:55.907Z,932.08
2017-02-19T00:19:24.151Z,932.1
2017-02-19T00:19:52.294Z,932.11
2017-02-19T00:20:20.465Z,932.1
2017-02-19T00:20:48.590Z,932.11
2017-02-19T00:21:16.753Z,932.12
2017-02-19T00:21:44.952Z,932.14
2017-02-19T00:22:13.316Z,932.15
2017-02-19T00:22:41.387Z,932.15
2017-02-19T00:23:09.523Z,932.14
2017-02-19T00:23:37.563Z,932.16
2017-02-19T00:24:05.674Z,932.15
2017-02-19T00:24:33.651Z,932.2
2017-02-19T00:25:01.909Z,932.18
2017-02-19T00:25:30.135Z,932.22
2017-02-19T00:25:58.376Z,932.21
2017-02-19T00:26:26.455Z,932.26
2017-02-19T00:26:54.689Z,932.26
2017-02-19T00:27:22.907Z,932.28
2017-02-19T00:27:51.267Z,932.3
2017-02-19T00:28:19.313Z,932.32
2017-02-19T00:28:47.478Z,932.34
2017-02-19T00:29:15.587Z,932.35
2017-02-19T00:29:43.705Z,932.4
2017-02-19T00:30:11.909Z,932.37
2017-02-19T00:30:39.833Z,932.38
2017-02-19T00:31:07.855Z,932.42
2017-02-19T00:31:35.855Z,932.44
2017-02-19T00:32:04.066Z,932.43
2017-02-19T00:32:32.204Z,932.46
2017-02-19T00:33:00.436Z,932.42
2017-02-19T00:33:28.378Z,932.43
2017-02-19T00:33:56.617Z,932.45
2017-02-19T00:34:24.759Z,932.43
2017-02-19T00:34:52.951Z,932.43
2017-02-19T00:35:20.987Z,932.45
2017-02-19T00:35:49.072Z,932.44
2017-02-19T00:36:17.104Z,932.43
2017-02-19T00:36:45.195Z,932.44
2017-02-19T00:37:13.279Z,932.47
2017-02-19T00:37:41.610Z,932.44
2017-02-19T00:38:09.808Z,932.46
2017-02-19T00:38:37.897Z,932.46
2017-02-19T00:39:06.104Z,932.45
2017-02-19T00:39:34.237Z,932.44
2017-02-19T00:40:02.268Z,932.47
2017-02-19T00:40:30.393Z,932.51
2017-02-19T00:40:58.438Z,932.46
2017-02-19T00:41:26.601Z,932.49
2017-02-19T00:41:54.750Z,932.5
2017-02-19T00:42:22.982Z,932.52
2017-02-19T00:42:51.234Z,932.52
2017-02-19T00:43:19.117Z,932.52
2017-02-19T00:43:47.265Z,932.53
2017-02-19T00:44:15.440Z,932.53
2017-02-19T00:44:43.730Z,932.54
2017-02-19T00:45:11.771Z,932.51
2017-02-19T00:45:39.844Z,932.53
2017-02-19T00:46:07.962Z,932.55
2017-02-19T00:46:35.953Z,932.55
2017-02-19T00:47:04.001Z,932.51
2017-02-19T00:47:32.016Z,932.52
2017-02-19T00:48:00.220Z,932.52
2017-02-19T00:48:28.252Z,932.52
2017-02-19T00:48:56.350Z,932.5
2017-02-19T00:49:24.533Z,932.48
2017-02-19T00:49:52.755Z,932.53
2017-02-19T00:50:20.797Z,932.47
2017-02-19T00:50:49.041Z,932.47
2017-02-19T00:51:17.281Z,932.48
2017-02-19T00:51:45.487Z,932.47
2017-02-19T00:52:13.518Z,932.47
2017-02-19T00:52:41.653Z,932.51
2017-02-19T00:53:09.860Z,932.51
2017-02-19T00:53:38.010Z,932.48
2017-02-19T00:54:05.933Z,932.47
2017-02-19T00:54:34.020Z,932.47
2017-02-19T00:55:02.066Z,932.47
2017-02-19T00:55:30.313Z,932.45
2017-02-19T00:55:58.455Z,932.49
2017-02-19T00:56:26.641Z,932.47
2017-02-19T00:56:54.668Z,932.49
2017-02-19T00:57:22.839Z,932.47
2017-02-19T00:57:51.081Z,932.49
2017-02-19T00:58:19.278Z,932.48
2017-02-19T00:58:47.476Z,932.47
2017-02-19T00:59:15.687Z,932.51
2017-02-19T00:59:43.775Z,932.47
2017-02-19T01:00:12.011Z,932.52
2017-02-19T01:00:40.126Z,932.49
2017-02-19T01:01:08.175Z,932.49
2017-02-19T01:01:36.187Z,932.51
2017-02-19T01:02:04.338Z,932.53
2017-02-19T01:02:32.361Z,932.53
2017-02-19T01:03:00.459Z,932.57
2017-02-19T01:03:28.497Z,932.52
2017-02-19T01:03:56.698Z,932.51
2017-02-19T01:04:24.939Z,932.52
2017-02-19T01:04:53.060Z,932.54
2017-02-19T01:05:21.110Z,932.55
2017-02-19T01:05:49.189Z,932.51
2017-02-19T01:06:17.394Z,932.5
2017-02-19T01:06:45.497Z,932.5
2017-02-19T01:07:13.671Z,932.48
2017-02-19T01:07:41.842Z,932.51
2017-02-19T01:08:10.049Z,932.5
2017-02-19T01:08:38.055Z,932.51
2017-02-19T01:09:06.172Z,932.47
2017-02-19T01:09:34.327Z,932.52
2017-02-19T01:10:02.434Z,932.49
2017-02-19T01:10:30.568Z,932.52
2017-02-19T01:10:58.729Z,932.51
2017-02-19T01:11:26.897Z,932.54
2017-02-19T01:11:55.008Z,932.53
2017-02-19T01:12:23.117Z,932.51
2017-02-19T01:12:51.238Z,932.56
2017-02-19T01:13:19.600Z,932.54
2017-02-19T01:13:47.663Z,932.57
2017-02-19T01:14:15.804Z,932.58
2017-02-19T01:14:43.910Z,932.55
2017-02-19T01:15:11.932Z,932.56
2017-02-19T01:15:40.052Z,932.57
2017-02-19T01:16:08.107Z,932.56
2017-02-19T01:16:36.318Z,932.55
2017-02-19T01:17:04.443Z,932.53
2017-02-19T01:17:32.635Z,932.52
2017-02-19T01:18:00.754Z,932.52
2017-02-19T01:18:28.931Z,932.51
2017-02-19T01:18:56.992Z,932.53
2017-02-19T01:19:25.121Z,932.49
2017-02-19T01:19:53.435Z,932.5
2017-02-19T01:20:21.493Z,932.53
2017-02-19T01:20:49.759Z,932.53
2017-02-19T01:21:17.849Z,932.52
2017-02-19T01:21:46.161Z,932.54
2017-02-19T01:22:14.355Z,932.5
2017-02-19T01:22:42.291Z,932.53
2017-02-19T01:23:10.605Z,932.55
2017-02-19T01:23:38.915Z,932.55
2017-02-19T01:24:06.994Z,932.58
2017-02-19T01:24:35.128Z,932.58
2017-02-19T01:25:03.237Z,932.54
2017-02-19T01:25:31.384Z,932.53
2017-02-19T01:25:59.325Z,932.54
2017-02-19T01:26:27.372Z,932.58
2017-02-19T01:26:55.801Z,932.62
2017-02-19T01:27:23.955Z,932.57
2017-02-19T01:27:52.133Z,932.59
2017-02-19T01:28:20.323Z,932.59
2017-02-19T01:28:48.446Z,932.59
2017-02-19T01:29:16.688Z,932.61
2017-02-19T01:29:44.894Z,932.64
2017-02-19T01:30:13.005Z,932.62
2017-02-19T01:30:41.135Z,932.61
2017-02-19T01:31:09.190Z,932.63
2017-02-19T01:31:37.502Z,932.63
2017-02-19T01:32:05.461Z,932.66
2017-02-19T01:32:33.490Z,932.67
2017-02-19T01:33:01.823Z,932.66
2017-02-19T01:33:29.977Z,932.7
2017-02-19T01:33:58.147Z,932.72
2017-02-19T01:34:26.203Z,932.72
2017-02-19T01:34:54.353Z,932.7
2017-02-19T01:35:22.552Z,932.7
2017-02-19T01:35:50.748Z,932.71
2017-02-19T01:36:18.693Z,932.69
2017-02-19T01:36:46.757Z,932.7
2017-02-19T01:37:15.085Z,932.7
2017-02-19T01:37:43.176Z,932.71
2017-02-19T01:38:11.385Z,932.7
2017-02-19T01:38:39.385Z,932.71
2017-02-19T01:39:07.459Z,932.69
2017-02-19T01:39:35.595Z,932.67
2017-02-19T01:40:03.703Z,932.7
2017-02-19T01:40:31.894Z,932.72
2017-02-19T01:40:59.952Z,932.69
2017-02-19T01:41:28.152Z,932.69
2017-02-19T01:41:56.383Z,932.68
2017-02-19T01:42:24.528Z,932.68
2017-02-19T01:42:52.636Z,932.67
2017-02-19T01:43:20.745Z,932.66
2017-02-19T01:43:48.904Z,932.66
2017-02-19T01:44:17.231Z,932.68
2017-02-19T01:44:45.549Z,932.68
2017-02-19T01:45:13.504Z,932.65
2017-02-19T01:45:41.689Z,932.6
2017-02-19T01:46:09.769Z,932.61
2017-02-19T01:46:37.891Z,932.58
2017-02-19T01:47:05.954Z,932.58
2017-02-19T01:47:34.085Z,932.57
2017-02-19T01:48:02.330Z,932.58
2017-02-19T01:48:30.672Z,932.55
2017-02-19T01:48:58.831Z,932.55
2017-02-19T01:49:27.011Z,932.5
2017-02-19T01:49:55.133Z,932.54
2017-02-19T01:50:23.275Z,932.52
2017-02-19T01:50:51.420Z,932.49
2017-02-19T01:51:19.682Z,932.5
2017-02-19T01:51:47.809Z,932.46
2017-02-19T01:52:15.873Z,932.47
2017-02-19T01:52:44.336Z,932.47
2017-02-19T01:53:12.564Z,932.5
2017-02-19T01:53:41.348Z,932.45
2017-02-19T01:54:09.374Z,932.45
2017-02-19T01:54:37.466Z,932.45
2017-02-19T01:55:05.649Z,932.45
2017-02-19T01:55:33.763Z,932.44
2017-02-19T01:56:02.007Z,932.43
2017-02-19T01:56:30.098Z,932.44
2017-02-19T01:56:57.941Z,932.48
2017-02-19T01:57:26.185Z,932.45
2017-02-19T01:57:54.743Z,932.44
2017-02-19T01:58:23.080Z,932.47
2017-02-19T01:58:51.127Z,932.44
2017-02-19T01:59:19.543Z,932.46
2017-02-19T01:59:47.673Z,932.45
2017-02-19T02:00:15.765Z,932.47
2017-02-19T02:00:43.923Z,932.45
2017-02-19T02:01:11.922Z,932.46
2017-02-19T02:01:39.999Z,932.41
2017-02-19T02:02:08.213Z,932.42
2017-02-19T02:02:36.466Z,932.44
2017-02-19T02:03:04.686Z,932.4
2017-02-19T02:03:32.819Z,932.41
2017-02-19T02:04:00.868Z,932.41
2017-02-19T02:04:28.920Z,932.39
2017-02-19T02:04:57.037Z,932.41
2017-02-19T02:05:25.128Z,932.42
2017-02-19T02:05:53.199Z,932.41
2017-02-19T02:06:21.144Z,932.39
2017-02-19T02:06:49.267Z,932.39
2017-02-19T02:07:17.206Z,932.39
2017-02-19T02:07:45.409Z,932.35
2017-02-19T02:08:13.765Z,932.39
2017-02-19T02:08:41.970Z,932.41
2017-02-19T02:09:10.190Z,932.39
2017-02-19T02:09:38.369Z,932.39
2017-02-19T02:10:06.381Z,932.41
2017-02-19T02:10:34.558Z,932.4
2017-02-19T02:11:02.753Z,932.39
2017-02-19T02:11:30.821Z,932.39
2017-02-19T02:11:58.994Z,932.41
2017-02-19T02:12:27.153Z,932.4
2017-02-19T02:12:55.256Z,932.42
2017-02-19T02:13:23.430Z,932.41
2017-02-19T02:13:51.408Z,932.37
2017-02-19T02:14:19.377Z,932.39
2017-02-19T02:14:47.455Z,932.39
2017-02-19T02:15:15.584Z,932.37
2017-02-19T02:15:43.807Z,932.36
2017-02-19T02:16:11.978Z,932.4
2017-02-19T02:16:40.118Z,932.37
2017-02-19T02:17:08.302Z,932.39
2017-02-19T02:17:36.439Z,932.41
2017-02-19T02:18:04.797Z,932.41
2017-02-19T02:18:32.945Z,932.4
2017-02-19T02:19:01.140Z,932.43
2017-02-19T02:19:29.296Z,932.41
2017-02-19T02:19:57.324Z,932.44
2017-02-19T02:20:25.555Z,932.46
2017-02-19T02:20:53.816Z,932.45
2017-02-19T02:21:22.165Z,932.44
2017-02-19T02:21:50.382Z,932.45
2017-02-19T02:22:18.527Z,932.43
2017-02-19T02:22:46.665Z,932.47
2017-02-19T02:23:14.874Z,932.47
2017-02-19T02:23:43.148Z,932.43
2017-02-19T02:24:11.206Z,932.46
2017-02-19T02:24:39.447Z,932.47
2017-02-19T02:25:07.638Z,932.43
2017-02-19T02:25:35.709Z,932.47
2017-02-19T02:26:03.977Z,932.47
2017-02-19T02:26:31.996Z,932.42
2017-02-19T02:27:00.309Z,932.42
2017-02-19T02:27:28.476Z,932.43
2017-02-19T02:27:56.698Z,932.43
2017-02-19T02:28:24.782Z,932.41
2017-02-19T02:28:53.054Z,932.38
2017-02-19T02:29:21.141Z,932.39
2017-02-19T02:29:49.307Z,932.36
2017-02-19T02:30:17.308Z,932.35
2017-02-19T02:30:45.404Z,932.36
2017-02-19T02:31:13.452Z,932.34
2017-02-19T02:31:41.619Z,932.33
2017-02-19T02:32:09.664Z,932.33
2017-02-19T02:32:37.873Z,932.29
2017-02-19T02:33:06.028Z,932.28
2017-02-19T02:33:34.211Z,932.28
2017-02-19T02:34:02.511Z,932.28
2017-02-19T02:34:30.678Z,932.24
2017-02-19T02:34:58.824Z,932.22
2017-02-19T02:35:27.024Z,932.23
2017-02-19T02:35:55.052Z,932.21
2017-02-19T02:36:23.220Z,932.23
2017-02-19T02:36:51.425Z,932.19
2017-02-19T02:37:19.583Z,932.24
2017-02-19T02:37:47.782Z,932.22
2017-02-19T02:38:16.041Z,932.22
2017-02-19T02:38:44.095Z,932.19
2017-02-19T02:39:12.139Z,932.21
2017-02-19T02:39:40.258Z,932.22
2017-02-19T02:40:08.336Z,932.23
2017-02-19T02:40:36.524Z,932.25
2017-02-19T02:41:04.664Z,932.24
2017-02-19T02:41:32.811Z,932.25
2017-02-19T02:42:00.907Z,932.27
2017-02-19T02:42:29.009Z,932.3
2017-02-19T02:42:57.236Z,932.3
2017-02-19T02:43:25.398Z,932.27
2017-02-19T02:43:53.553Z,932.29
2017-02-19T02:44:21.722Z,932.27
2017-02-19T02:44:49.765Z,932.26
2017-02-19T02:45:17.827Z,932.29
2017-02-19T02:45:45.838Z,932.26
2017-02-19T02:46:13.947Z,932.26
2017-02-19T02:46:42.351Z,932.22
2017-02-19T02:47:10.459Z,932.25
2017-02-19T02:47:38.545Z,932.21
2017-02-19T02:48:06.578Z,932.21
2017-02-19T02:48:34.790Z,932.2
2017-02-19T02:49:03.003Z,932.17
2017-02-19T02:49:31.195Z,932.17
2017-02-19T02:49:59.327Z,932.19
2017-02-19T02:50:27.382Z,932.16
2017-02-19T02:50:55.740Z,932.14
2017-02-19T02:51:23.956Z,932.14
2017-02-19T02:51:52.165Z,932.13
2017-02-19T02:52:20.332Z,932.13
2017-02-19T02:52:48.460Z,932.12
2017-02-19T02:53:16.403Z,932.15
2017-02-19T02:53:44.576Z,932.13
2017-02-19T02:54:12.803Z,932.17
2017-02-19T02:54:40.951Z,932.15
2017-02-19T02:55:09.064Z,932.16
2017-02-19T02:55:37.164Z,932.13
2017-02-19T02:56:05.202Z,932.11
2017-02-19T02:56:33.208Z,932.11
2017-02-19T02:57:01.275Z,932.15
2017-02-19T02:57:29.541Z,932.11
2017-02-19T02:57:57.677Z,932.08
2017-02-19T02:58:25.862Z,932.11
2017-02-19T02:58:54.255Z,932.08
2017-02-19T02:59:22.419Z,932.06
2017-02-19T02:59:50.540Z,932.08
2017-02-19T03:00:18.633Z,932.06
2017-02-19T03:00:47.115Z,932.06
2017-02-19T03:01:15.353Z,932.02
2017-02-19T03:01:43.205Z,932.05
2017-02-19T03:02:11.248Z,932.01
2017-02-19T03:02:39.494Z,932
2017-02-19T03:03:07.726Z,932
2017-02-19T03:03:35.900Z,931.99
2017-02-19T03:04:04.507Z,931.98
2017-02-19T03:04:32.614Z,932
2017-02-19T03:05:00.833Z,931.99
2017-02-19T03:05:29.019Z,932
2017-02-19T03:05:57.138Z,931.98
2017-02-19T03:06:25.285Z,932
2017-02-19T03:06:53.434Z,931.96
2017-02-19T03:07:21.518Z,931.98
2017-02-19T03:07:49.788Z,931.98
2017-02-19T03:08:18.073Z,931.98
2017-02-19T03:08:46.296Z,931.99
2017-02-19T03:09:14.497Z,931.99
2017-02-19T03:09:42.761Z,932.01
2017-02-19T03:10:11.043Z,931.96
2017-02-19T03:10:39.156Z,931.97
2017-02-19T03:11:07.565Z,931.98
2017-02-19T03:11:35.655Z,931.99
2017-02-19T03:12:03.806Z,931.98
2017-02-19T03:12:32.021Z,931.95
2017-02-19T03:13:00.335Z,931.95
2017-02-19T03:13:28.273Z,931.91
2017-02-19T03:13:56.495Z,931.94
2017-02-19T03:14:24.756Z,931.95
2017-02-19T03:14:52.922Z,931.91
2017-02-19T03:15:21.124Z,931.89
2017-02-19T03:15:49.277Z,931.89
2017-02-19T03:16:17.535Z,931.9
2017-02-19T03:16:45.578Z,931.88
2017-02-19T03:17:13.637Z,931.88
2017-02-19T03:17:41.846Z,931.89
2017-02-19T03:18:10.106Z,931.86
2017-02-19T03:18:38.323Z,931.86
2017-02-19T03:19:06.657Z,931.87
2017-02-19T03:19:35.103Z,931.86
2017-02-19T03:20:03.294Z,931.84
2017-02-19T03:20:31.294Z,931.85
2017-02-19T03:20:59.600Z,931.86
2017-02-19T03:21:27.619Z,931.85
2017-02-19T03:21:55.714Z,931.86
2017-02-19T03:22:24.129Z,931.85
2017-02-19T03:22:52.579Z,931.84
2017-02-19T03:23:20.752Z,931.88
2017-02-19T03:23:48.744Z,931.86
2017-02-19T03:24:16.944Z,931.83
2017-02-19T03:24:45.170Z,931.84
2017-02-19T03:25:13.633Z,931.82
2017-02-19T03:25:41.853Z,931.85
2017-02-19T03:26:10.039Z,931.83
2017-02-19T03:26:38.050Z,931.85
2017-02-19T03:27:06.154Z,931.83
2017-02-19T03:27:34.296Z,931.82
2017-02-19T03:28:02.407Z,931.84
2017-02-19T03:28:30.537Z,931.87
2017-02-19T03:28:58.750Z,931.83
2017-02-19T03:29:26.880Z,931.82
2017-02-19T03:29:55.101Z,931.83
2017-02-19T03:30:23.331Z,931.84
2017-02-19T03:30:51.563Z,931.83
2017-02-19T03:31:19.614Z,931.85
2017-02-19T03:31:47.609Z,931.84
2017-02-19T03:32:15.805Z,931.82
2017-02-19T03:32:43.898Z,931.82
2017-02-19T03:33:11.997Z,931.83
2017-02-19T03:33:40.336Z,931.84
2017-02-19T03:34:08.806Z,931.83
2017-02-19T03:34:36.891Z,931.83
2017-02-19T03:35:05.012Z,931.82
2017-02-19T03:35:33.228Z,931.82
2017-02-19T03:36:01.245Z,931.81
2017-02-19T03:36:29.452Z,931.82
2017-02-19T03:36:57.483Z,931.84
2017-02-19T03:37:25.576Z,931.78
2017-02-19T03:37:53.625Z,931.77
2017-02-19T03:38:21.783Z,931.79
2017-02-19T03:38:49.899Z,931.79
2017-02-19T03:39:18.071Z,931.75
2017-02-19T03:39:46.290Z,931.78
2017-02-19T03:40:14.344Z,931.76
2017-02-19T03:40:42.579Z,931.73
2017-02-19T03:41:10.718Z,931.77
2017-02-19T03:41:38.860Z,931.75
2017-02-19T03:42:07.295Z,931.71
2017-02-19T03:42:35.513Z,931.73
2017-02-19T03:43:03.741Z,931.72
2017-02-19T03:43:31.885Z,931.74
2017-02-19T03:44:00.117Z,931.72
2017-02-19T03:44:28.455Z,931.72
2017-02-19T03:44:56.604Z,931.72
2017-02-19T03:45:24.744Z,931.68
2017-02-19T03:45:53.000Z,931.7
2017-02-19T03:46:21.141Z,931.72
2017-02-19T03:46:49.280Z,931.76
2017-02-19T03:47:17.355Z,931.74
2017-02-19T03:47:45.545Z,931.75
2017-02-19T03:48:13.731Z,931.77
2017-02-19T03:48:41.639Z,931.74
2017-02-19T03:49:09.561Z,931.76
2017-02-19T03:49:37.849Z,931.76
2017-02-19T03:50:05.854Z,931.76
2017-02-19T03:50:33.712Z,931.78
2017-02-19T03:51:01.840Z,931.75
2017-02-19T03:51:30.065Z,931.79
2017-02-19T03:51:58.071Z,931.76
2017-02-19T03:52:26.161Z,931.78
2017-02-19T03:52:54.119Z,931.77
2017-02-19T03:53:22.404Z,931.73
2017-02-19T03:53:50.515Z,931.76
2017-02-19T03:54:18.742Z,931.74
2017-02-19T03:54:47.120Z,931.72
2017-02-19T03:55:15.032Z,931.74
2017-02-19T03:55:43.070Z,931.73
2017-02-19T03:56:11.191Z,931.72
2017-02-19T03:56:39.371Z,931.7
2017-02-19T03:57:07.582Z,931.7
2017-02-19T03:57:35.811Z,931.68
2017-02-19T03:58:03.848Z,931.69
2017-02-19T03:58:31.980Z,931.68
2017-02-19T03:59:00.169Z,931.71
2017-02-19T03:59:28.489Z,931.69
2017-02-19T03:59:56.623Z,931.69
2017-02-19T04:00:24.731Z,931.71
2017-02-19T04:00:52.770Z,931.69
2017-02-19T04:01:20.950Z,931.71
2017-02-19T04:01:49.227Z,931.73
2017-02-19T04:02:17.547Z,931.68
2017-02-19T04:02:45.656Z,931.66
2017-02-19T04:03:13.732Z,931.7
2017-02-19T04:03:41.881Z,931.66
2017-02-19T04:04:10.007Z,931.68
2017-02-19T04:04:38.259Z,931.65
2017-02-19T04:05:06.492Z,931.66
2017-02-19T04:05:34.734Z,931.66
2017-02-19T04:06:02.964Z,931.64
2017-02-19T04:06:31.015Z,931.64
2017-02-19T04:06:59.110Z,931.62
2017-02-19T04:07:27.284Z,931.63
2017-02-19T04:07:55.398Z,931.59
2017-02-19T04:08:23.397Z,931.6
2017-02-19T04:08:51.674Z,931.6
2017-02-19T04:09:19.838Z,931.6
2017-02-19T04:09:47.953Z,931.59
2017-02-19T04:10:15.962Z,931.57
2017-02-19T04:10:44.095Z,931.59
2017-02-19T04:11:12.292Z,931.57
2017-02-19T04:11:40.452Z,931.59
2017-02-19T04:12:08.674Z,931.61
2017-02-19T04:12:36.831Z,931.61
2017-02-19T04:13:04.971Z,931.56
2017-02-19T04:13:33.182Z,931.57
2017-02-19T04:14:01.385Z,931.57
2017-02-19T04:14:29.611Z,931.58
2017-02-19T04:14:57.854Z,931.58
2017-02-19T04:15:26.114Z,931.59
2017-02-19T04:15:54.289Z,931.54
2017-02-19T04:16:22.423Z,931.54
2017-02-19T04:16:50.594Z,931.54
2017-02-19T04:17:18.777Z,931.57
2017-02-19T04:17:46.941Z,931.52
2017-02-19T04:18:15.185Z,931.55
2017-02-19T04:18:43.256Z,931.54
2017-02-19T04:19:11.419Z,931.51
2017-02-19T04:19:39.701Z,931.53
2017-02-19T04:20:07.946Z,931.53
2017-02-19T04:20:35.910Z,931.55
2017-02-19T04:21:04.011Z,931.54
2017-02-19T04:21:32.137Z,931.54
2017-02-19T04:22:00.420Z,931.56
2017-02-19T04:22:28.441Z,931.56
2017-02-19T04:22:56.599Z,931.57
2017-02-19T04:23:24.929Z,931.56
2017-02-19T04:23:53.095Z,931.56
2017-02-19T04:24:21.310Z,931.57
2017-02-19T04:24:49.514Z,931.6
2017-02-19T04:25:17.847Z,931.58
2017-02-19T04:25:46.086Z,931.57
2017-02-19T04:26:14.494Z,931.58
2017-02-19T04:26:42.697Z,931.57
2017-02-19T04:27:10.944Z,931.56
2017-02-19T04:27:39.221Z,931.59
2017-02-19T04:28:07.403Z,931.59
2017-02-19T04:28:35.447Z,931.57
2017-02-19T04:29:03.518Z,931.58
2017-02-19T04:29:31.968Z,931.62
2017-02-19T04:30:00.084Z,931.57
2017-02-19T04:30:28.166Z,931.6
2017-02-19T04:30:56.212Z,931.56
2017-02-19T04:31:24.437Z,931.56
2017-02-19T04:31:52.569Z,931.58
2017-02-19T04:32:20.813Z,931.55
2017-02-19T04:32:49.158Z,931.56
2017-02-19T04:33:17.183Z,931.53
2017-02-19T04:33:45.257Z,931.54
2017-02-19T04:34:13.576Z,931.54
2017-02-19T04:34:41.697Z,931.53
2017-02-19T04:35:10.018Z,931.53
2017-02-19T04:35:38.311Z,931.52
2017-02-19T04:36:06.573Z,931.52
2017-02-19T04:36:34.653Z,931.48
2017-02-19T04:37:02.856Z,931.48
2017-02-19T04:37:31.043Z,931.51
2017-02-19T04:37:59.174Z,931.45
2017-02-19T04:38:27.284Z,931.45
2017-02-19T04:38:55.451Z,931.43
2017-02-19T04:39:23.684Z,931.44
2017-02-19T04:39:51.923Z,931.43
2017-02-19T04:40:20.089Z,931.41
2017-02-19T04:40:48.310Z,931.4
2017-02-19T04:41:16.470Z,931.4
2017-02-19T04:41:44.697Z,931.41
2017-02-19T04:42:12.858Z,931.41
2017-02-19T04:42:41.035Z,931.37
2017-02-19T04:43:09.066Z,931.38
2017-02-19T04:43:36.987Z,931.4
2017-02-19T04:44:05.148Z,931.36
2017-02-19T04:44:33.245Z,931.38
2017-02-19T04:45:01.592Z,931.34
2017-02-19T04:45:29.756Z,931.35
2017-02-19T04:45:58.093Z,931.32
2017-02-19T04:46:26.324Z,931.28
2017-02-19T04:46:54.523Z,931.3
2017-02-19T04:47:22.672Z,931.28
2017-02-19T04:47:50.845Z,931.3
2017-02-19T04:48:18.956Z,931.26
2017-02-19T04:48:47.071Z,931.28
2017-02-19T04:49:15.196Z,931.26
2017-02-19T04:49:43.336Z,931.28
2017-02-19T04:50:11.830Z,931.25
2017-02-19T04:50:39.910Z,931.22
2017-02-19T04:51:08.104Z,931.26
2017-02-19T04:51:36.119Z,931.24
2017-02-19T04:52:04.255Z,931.25
2017-02-19T04:52:32.355Z,931.24
2017-02-19T04:53:00.555Z,931.21
2017-02-19T04:53:28.671Z,931.23
2017-02-19T04:53:56.840Z,931.22
2017-02-19T04:54:24.876Z,931.21
2017-02-19T04:54:53.113Z,931.2
2017-02-19T04:55:21.333Z,931.19
2017-02-19T04:55:49.518Z,931.18
2017-02-19T04:56:17.738Z,931.17
2017-02-19T04:56:45.842Z,931.17
2017-02-19T04:57:13.968Z,931.15
2017-02-19T04:57:42.210Z,931.15
2017-02-19T04:58:10.264Z,931.13
2017-02-19T04:58:38.394Z,931.13
2017-02-19T04:59:06.611Z,931.1
2017-02-19T04:59:34.833Z,931.1
2017-02-19T05:00:03.297Z,931.1
2017-02-19T05:00:31.482Z,931.11
2017-02-19T05:00:59.566Z,931.06
2017-02-19T05:01:27.808Z,931.08
2017-02-19T05:01:56.037Z,931.06
2017-02-19T05:02:24.160Z,931.06
2017-02-19T05:02:52.297Z,931.03
2017-02-19T05:03:20.504Z,931.03
2017-02-19T05:03:48.639Z,931.04
2017-02-19T05:04:16.927Z,931.04
2017-02-19T05:04:45.059Z,931.02
2017-02-19T05:05:13.180Z,931.01
2017-02-19T05:05:41.297Z,931.03
2017-02-19T05:06:09.232Z,931.01
2017-02-19T05:06:37.428Z,930.99
2017-02-19T05:07:05.697Z,930.99
2017-02-19T05:07:33.973Z,931.02
2017-02-19T05:08:02.116Z,930.97
2017-02-19T05:08:30.109Z,930.97
2017-02-19T05:08:58.098Z,930.97
2017-02-19T05:09:26.338Z,931
2017-02-19T05:09:54.593Z,930.96
2017-02-19T05:10:22.836Z,930.94
2017-02-19T05:10:50.967Z,930.92
2017-02-19T05:11:19.118Z,930.96
2017-02-19T05:11:47.252Z,930.94
2017-02-19T05:12:15.301Z,930.94
2017-02-19T05:12:43.388Z,930.93
2017-02-19T05:13:11.540Z,930.93
2017-02-19T05:13:39.741Z,930.93
2017-02-19T05:14:07.875Z,930.87
2017-02-19T05:14:35.939Z,930.91
2017-02-19T05:15:03.981Z,930.92
2017-02-19T05:15:32.382Z,930.89
2017-02-19T05:16:00.452Z,930.91
2017-02-19T05:16:28.664Z,930.92
2017-02-19T05:16:56.803Z,930.91
2017-02-19T05:17:25.017Z,930.87
2017-02-19T05:17:53.231Z,930.9
2017-02-19T05:18:21.432Z,930.88
2017-02-19T05:18:49.556Z,930.83
2017-02-19T05:19:17.779Z,930.84
2017-02-19T05:19:45.999Z,930.85
2017-02-19T05:20:14.327Z,930.82
2017-02-19T05:20:42.549Z,930.82
2017-02-19T05:21:10.805Z,930.79
2017-02-19T05:21:38.936Z,930.8
2017-02-19T05:22:07.196Z,930.78
2017-02-19T05:22:35.297Z,930.73
2017-02-19T05:23:03.402Z,930.75
2017-02-19T05:23:31.478Z,930.73
2017-02-19T05:23:59.719Z,930.74
2017-02-19T05:24:27.926Z,930.72
2017-02-19T05:24:56.070Z,930.71
2017-02-19T05:25:24.303Z,930.72
2017-02-19T05:25:52.394Z,930.7
2017-02-19T05:26:20.627Z,930.72
2017-02-19T05:26:48.766Z,930.71
2017-02-19T05:27:16.783Z,930.69
2017-02-19T05:27:44.956Z,930.71
2017-02-19T05:28:13.316Z,930.69
2017-02-19T05:28:41.560Z,930.68
2017-02-19T05:29:09.780Z,930.69
2017-02-19T05:29:37.832Z,930.71
2017-02-19T05:30:05.965Z,930.71
2017-02-19T05:30:34.042Z,930.71
2017-02-19T05:31:02.248Z,930.7
2017-02-19T05:31:30.539Z,930.75
2017-02-19T05:31:58.682Z,930.71
2017-02-19T05:32:26.884Z,930.69
2017-02-19T05:32:54.925Z,930.72
2017-02-19T05:33:23.020Z,930.73
2017-02-19T05:33:51.244Z,930.73
2017-02-19T05:34:19.400Z,930.74
2017-02-19T05:34:47.450Z,930.77
2017-02-19T05:35:15.500Z,930.77
2017-02-19T05:35:43.662Z,930.77
2017-02-19T05:36:11.793Z,930.79
2017-02-19T05:36:39.750Z,930.79
2017-02-19T05:37:07.997Z,930.8
2017-02-19T05:37:36.053Z,930.83
2017-02-19T05:38:04.049Z,930.82
2017-02-19T05:38:32.355Z,930.83
2017-02-19T05:39:00.491Z,930.82
2017-02-19T05:39:28.579Z,930.84
2017-02-19T05:39:56.674Z,930.84
2017-02-19T05:40:24.994Z,930.84
2017-02-19T05:40:53.224Z,930.87
2017-02-19T05:41:21.351Z,930.87
2017-02-19T05:41:49.559Z,930.85
2017-02-19T05:42:17.734Z,930.93
2017-02-19T05:42:45.790Z,930.97
2017-02-19T05:43:13.861Z,930.93
2017-02-19T05:43:42.113Z,930.94
2017-02-19T05:44:10.305Z,930.95
2017-02-19T05:44:38.462Z,930.95
2017-02-19T05:45:06.667Z,930.93
2017-02-19T05:45:34.916Z,930.95
2017-02-19T05:46:03.117Z,930.96
2017-02-19T05:46:31.291Z,930.95
2017-02-19T05:46:59.701Z,930.94
2017-02-19T05:47:27.735Z,930.94
2017-02-19T05:47:55.827Z,930.94
2017-02-19T05:48:23.924Z,930.96
2017-02-19T05:48:52.135Z,930.93
2017-02-19T05:49:20.341Z,930.96
2017-02-19T05:49:48.727Z,930.95
2017-02-19T05:50:16.884Z,930.94
2017-02-19T05:50:45.010Z,930.99
2017-02-19T05:51:13.282Z,930.97
2017-02-19T05:51:41.464Z,930.95
2017-02-19T05:52:09.687Z,931.01
2017-02-19T05:52:38.134Z,930.99